K4BM

Wilkerson Pass Airport

Wilkerson Pass, Colorado, USA
METAR K4BM 220312Z AUTO 00000KT 10SM CLR 06/02 A3064 RMK AO2
Observed Flight Rules
Sep-22 @ 03:12 UTC (12 minutes ago) Visual Flight Rules
Visibility Clouds
10 miles
Temperatures Readings
Current 6°C / 43°F
Dewpoint 2°C / 36°F
Humidity 76%
Altimeter 30.64" Hg
Pressure 1038 hPa
Elevation 3438
METAR K4BM 220312Z AUTO 00000KT 10SM CLR 06/02 A3064 RMK AO2
Observed Flight Rules
Sep-22 @ 03:12 UTC
(12 minutes ago)
VFR
Clouds
Temperature Dewpoint
6°C / 43°F 2°C / 36°F
Humidity Altimeter Pressure
76% 30.64" Hg 1038 hPa